Time;durP1;ratioP1;P1;durP2;ratioP2;P2;SDS_P1;SDS_P2;PMS_P1;PMS_P2;Temp;Humidity;BMP_temperature;BMP_pressure;BME280_temperature;BME280_humidity;BME280_pressure;Samples;Min_cycle;Max_cycle;Signal;HPM_P1;HPM_P2
2023/06/04 00:01:32;;;;;;;;;;;;;;;20.23;70.77;97158.11;619651;229;65095;-63
2023/06/04 00:03:59;;;;;;;;;;;;;;;20.22;70.75;97156.52;619633;229;64839;-63
2023/06/04 00:06:27;;;;;;;;;;;;;;;20.22;70.76;97151.18;619682;229;65036;-63
2023/06/04 00:08:54;;;;;;;;;;;;;;;20.22;70.75;97149.31;619617;229;66837;-63
2023/06/04 00:11:22;;;;;;;;;;;;;;;20.22;70.75;97153.84;619633;229;63017;-63
2023/06/04 00:13:50;;;;;;;;;;;;;;;20.22;70.75;97151.18;619594;229;67199;-63
2023/06/04 00:16:17;;;;;;;;;;;;;;;20.21;70.75;97152.23;619693;229;66963;-63
2023/06/04 00:18:45;;;;;;;;;;;;;;;20.22;70.76;97151.98;619707;229;62719;-63
2023/06/04 00:21:12;;;;;;;;;;;;;;;20.21;70.76;97153.02;619601;229;64836;-63
2023/06/04 00:23:40;;;;;;;;;;;;;;;20.22;70.75;97146.64;619634;229;65371;-63
2023/06/04 00:26:08;;;;;;;;;;;;;;;20.22;70.76;97137.84;619634;229;65009;-63
2023/06/04 00:28:35;;;;;;;;;;;;;;;20.22;70.74;97145.84;619617;229;67242;-63
2023/06/04 00:31:04;;;;;;;;;;;;;;;20.22;70.71;97143.17;619640;229;67217;-63
2023/06/04 00:33:32;;;;;;;;;;;;;;;20.22;70.72;97143.17;619678;229;65159;-63
2023/06/04 00:35:59;;;;;;;;;;;;;;;20.22;70.71;97148.52;619586;229;67293;-63
2023/06/04 00:38:27;;;;;;;;;;;;;;;20.21;70.71;97152.23;619631;229;67005;-63
2023/06/04 00:40:54;;;;;;;;;;;;;;;20.21;70.71;97144.22;619654;229;62745;-63
2023/06/04 00:43:25;;;;;;;;;;;;;;;20.21;70.70;97142.34;619632;229;64646;-63
2023/06/04 00:45:51;;;;;;;;;;;;;;;20.21;70.69;97150.35;619640;227;64776;-63
2023/06/04 00:48:18;;;;;;;;;;;;;;;20.21;70.67;97153.02;619568;229;62650;-63
2023/06/04 00:50:47;;;;;;;;;;;;;;;20.22;70.67;97148.52;619634;229;68127;-63
2023/06/04 00:53:15;;;;;;;;;;;;;;;20.22;70.68;97153.84;619650;229;64870;-63
2023/06/04 00:55:42;;;;;;;;;;;;;;;20.21;70.68;97141.55;619630;229;62682;-63
2023/06/04 00:58:10;;;;;;;;;;;;;;;20.21;70.68;97141.55;619669;229;67963;-63
2023/06/04 01:00:38;;;;;;;;;;;;;;;20.22;70.69;97148.52;619603;229;64789;-63
2023/06/04 01:03:08;;;;;;;;;;;;;;;20.21;70.69;97142.34;619676;229;65023;-63
2023/06/04 01:05:39;;;;;;;;;;;;;;;20.21;70.68;97141.55;619613;228;67620;-63
2023/06/04 01:08:08;;;;;;;;;;;;;;;20.21;70.68;97146.89;619663;229;64619;-63
2023/06/04 01:10:36;;;;;;;;;;;;;;;20.20;70.69;97154.09;619683;229;65115;-63
2023/06/04 01:13:04;;;;;;;;;;;;;;;20.21;70.69;97149.56;619562;229;66938;-63
2023/06/04 01:15:31;;;;;;;;;;;;;;;20.20;70.72;97146.09;619646;229;66885;-63
2023/06/04 01:18:05;;;;;;;;;;;;;;;20.20;70.71;97153.30;619686;229;64878;-63
2023/06/04 01:20:34;;;;;;;;;;;;;;;20.22;70.72;97159.19;619656;229;64926;-63
2023/06/04 01:23:03;;;;;;;;;;;;;;;20.21;70.73;97157.56;619482;228;64738;-63
2023/06/04 01:25:38;;;;;;;;;;;;;;;20.20;70.74;97147.97;619153;229;65816;-63
2023/06/04 01:28:06;;;;;;;;;;;;;;;20.21;70.75;97157.56;619193;228;63795;-63
2023/06/04 01:30:36;;;;;;;;;;;;;;;20.19;70.75;97160.51;619625;229;64592;-63
2023/06/04 01:33:04;;;;;;;;;;;;;;;20.20;70.76;97159.44;619506;228;64951;-63
2023/06/04 01:35:31;;;;;;;;;;;;;;;20.20;70.78;97159.44;619604;229;64360;-63
2023/06/04 01:37:59;;;;;;;;;;;;;;;20.20;70.79;97161.30;619670;229;66182;-63
2023/06/04 01:40:27;;;;;;;;;;;;;;;20.20;70.80;97163.98;619647;229;62875;-64
2023/06/04 01:42:54;;;;;;;;;;;;;;;20.20;70.82;97163.98;619651;229;65787;-63
2023/06/04 01:45:26;;;;;;;;;;;;;;;20.20;70.86;97167.44;619635;229;66906;-63
2023/06/04 01:47:54;;;;;;;;;;;;;;;20.20;70.87;97163.98;619616;229;65805;-63
2023/06/04 01:50:22;;;;;;;;;;;;;;;20.20;70.87;97169.31;619642;229;67151;-63
2023/06/04 01:52:50;;;;;;;;;;;;;;;20.20;70.90;97167.44;619682;229;64897;-65
2023/06/04 01:55:17;;;;;;;;;;;;;;;20.20;70.92;97166.64;619692;229;63119;-65
2023/06/04 01:57:46;;;;;;;;;;;;;;;20.20;70.91;97172.78;619647;229;66899;-64
2023/06/04 02:00:14;;;;;;;;;;;;;;;20.20;70.92;97174.65;619661;229;66986;-64
2023/06/04 02:02:42;;;;;;;;;;;;;;;20.20;70.94;97178.11;619635;229;64379;-64
2023/06/04 02:05:10;;;;;;;;;;;;;;;20.20;70.95;97171.98;619703;229;65429;-65
2023/06/04 02:07:38;;;;;;;;;;;;;;;20.19;70.93;97173.85;619641;229;67073;-65
2023/06/04 02:10:13;;;;;;;;;;;;;;;20.20;70.94;97172.78;619662;229;62516;-65
2023/06/04 02:12:42;;;;;;;;;;;;;;;20.18;70.97;97182.90;619603;229;67195;-64
2023/06/04 02:15:11;;;;;;;;;;;;;;;20.18;70.97;97173.02;619363;228;64942;-64
2023/06/04 02:17:42;;;;;;;;;;;;;;;20.19;70.96;97176.52;619653;229;62989;-64
2023/06/04 02:20:09;;;;;;;;;;;;;;;20.20;70.98;97179.98;619632;228;64810;-65
2023/06/04 02:22:37;;;;;;;;;;;;;;;20.19;70.97;97187.20;619660;229;65080;-65
2023/06/04 02:25:05;;;;;;;;;;;;;;;20.19;70.96;97184.52;619654;229;65076;-65
2023/06/04 02:27:32;;;;;;;;;;;;;;;20.20;70.97;97187.99;619630;229;67181;-65
2023/06/04 02:30:00;;;;;;;;;;;;;;;20.20;70.97;97187.99;619674;229;67472;-65
2023/06/04 02:32:28;;;;;;;;;;;;;;;20.19;70.95;97187.20;619672;229;65052;-65
2023/06/04 02:34:56;;;;;;;;;;;;;;;20.18;70.96;97197.04;619642;229;64981;-65
2023/06/04 02:37:24;;;;;;;;;;;;;;;20.18;70.96;97197.04;619661;229;64836;-63
2023/06/04 02:39:51;;;;;;;;;;;;;;;20.18;70.96;97199.70;615668;229;64903;-63
2023/06/04 02:42:19;;;;;;;;;;;;;;;20.19;70.93;97203.20;619648;229;67223;-63
2023/06/04 02:44:46;;;;;;;;;;;;;;;20.18;70.95;97199.70;619754;229;64662;-63
2023/06/04 02:47:14;;;;;;;;;;;;;;;20.19;70.93;97205.88;619633;229;62738;-63
2023/06/04 02:49:42;;;;;;;;;;;;;;;20.19;70.95;97205.88;619640;229;64985;-63
2023/06/04 02:52:09;;;;;;;;;;;;;;;20.18;70.96;97204.25;619627;229;67001;-63
2023/06/04 02:54:37;;;;;;;;;;;;;;;20.18;70.96;97206.92;619671;229;64952;-62
2023/06/04 02:57:05;;;;;;;;;;;;;;;20.18;70.95;97210.38;619703;229;67039;-62
2023/06/04 02:59:33;;;;;;;;;;;;;;;20.18;70.96;97207.72;619604;229;67027;-62
2023/06/04 03:02:00;;;;;;;;;;;;;;;20.18;70.97;97209.59;619655;229;64862;-62
2023/06/04 03:04:33;;;;;;;;;;;;;;;20.17;70.94;97211.45;619661;229;67063;-62
2023/06/04 03:06:57;;;;;;;;;;;;;;;20.17;70.97;97206.12;619522;228;66906;-62
2023/06/04 03:09:25;;;;;;;;;;;;;;;20.18;70.96;97221.05;619664;229;65075;-62
2023/06/04 03:11:52;;;;;;;;;;;;;;;20.18;70.97;97214.92;619677;229;67053;-62
2023/06/04 03:14:20;;;;;;;;;;;;;;;20.17;70.96;97211.45;619614;229;66962;-62
2023/06/04 03:16:48;;;;;;;;;;;;;;;20.17;70.97;97208.78;619639;229;62386;-62
2023/06/04 03:19:17;;;;;;;;;;;;;;;20.17;70.96;97216.80;619648;229;67349;-62
2023/06/04 03:21:45;;;;;;;;;;;;;;;20.18;70.96;97215.72;619646;229;64539;-63
2023/06/04 03:24:12;;;;;;;;;;;;;;;20.17;70.94;97213.33;619673;229;64894;-63
2023/06/04 03:26:40;;;;;;;;;;;;;;;20.17;70.94;97216.80;619618;229;64715;-63
2023/06/04 03:29:08;;;;;;;;;;;;;;;20.18;70.91;97218.39;619659;229;67242;-63
2023/06/04 03:31:35;;;;;;;;;;;;;;;20.18;70.92;97217.59;619624;229;65830;-63
2023/06/04 03:34:03;;;;;;;;;;;;;;;20.17;70.92;97216.00;619668;229;67266;-63
2023/06/04 03:36:37;;;;;;;;;;;;;;;20.17;70.92;97219.46;619695;229;67090;-63
2023/06/04 03:39:04;;;;;;;;;;;;;;;20.17;70.92;97222.13;619571;227;65661;-63
2023/06/04 03:41:32;;;;;;;;;;;;;;;20.17;70.92;97214.13;619607;229;67222;-63
2023/06/04 03:43:59;;;;;;;;;;;;;;;20.17;70.92;97224.80;619669;229;64908;-63
2023/06/04 03:46:31;;;;;;;;;;;;;;;20.18;70.92;97228.27;619660;229;65883;-63
2023/06/04 03:48:58;;;;;;;;;;;;;;;20.17;70.92;97227.47;619602;227;71519;-63
2023/06/04 03:51:27;;;;;;;;;;;;;;;20.16;70.92;97220.53;619685;229;67418;-63
2023/06/04 03:53:55;;;;;;;;;;;;;;;20.17;70.93;97232.00;619630;229;65742;-63
2023/06/04 03:56:22;;;;;;;;;;;;;;;20.17;70.93;97234.67;619647;229;67434;-63
2023/06/04 03:58:51;;;;;;;;;;;;;;;20.17;70.93;97232.00;619673;229;67333;-63
2023/06/04 04:01:18;;;;;;;;;;;;;;;20.17;70.97;97238.14;619641;229;65114;-65
2023/06/04 04:03:49;;;;;;;;;;;;;;;20.16;70.94;97225.88;619692;229;67827;-65
2023/06/04 04:06:17;;;;;;;;;;;;;;;20.17;70.94;97237.34;619590;229;67741;-66
2023/06/04 04:08:45;;;;;;;;;;;;;;;20.17;70.96;97238.14;619636;229;64998;-64
2023/06/04 04:11:15;;;;;;;;;;;;;;;20.17;70.94;97237.34;619604;229;67253;-64
2023/06/04 04:13:43;;;;;;;;;;;;;;;20.16;70.95;97241.88;618045;228;65611;-64
2023/06/04 04:16:10;;;;;;;;;;;;;;;20.17;70.96;97246.14;617589;230;65222;-64
2023/06/04 04:18:38;;;;;;;;;;;;;;;20.16;70.97;97252.55;617519;230;64563;-64
2023/06/04 04:21:06;;;;;;;;;;;;;;;20.18;71.00;97255.74;617499;230;65665;-64
2023/06/04 04:23:35;;;;;;;;;;;;;;;20.16;71.02;97255.22;617532;230;63026;-64
2023/06/04 04:26:02;;;;;;;;;;;;;;;20.16;71.03;97249.06;617511;230;66892;-64
2023/06/04 04:28:32;;;;;;;;;;;;;;;20.17;71.06;97264.83;617499;230;64804;-64
2023/06/04 04:31:02;;;;;;;;;;;;;;;20.16;71.06;97260.56;617544;230;62524;-64
2023/06/04 04:33:39;;;;;;;;;;;;;;;20.17;71.09;97266.70;617511;230;65289;-64
2023/06/04 04:36:01;;;;;;;;;;;;;;;20.16;71.13;97263.23;617292;228;66748;-64
2023/06/04 04:38:30;;;;;;;;;;;;;;;20.16;71.11;97262.41;617518;230;62840;-64
2023/06/04 04:41:00;;;;;;;;;;;;;;;20.17;71.16;97264.03;617547;228;43930;-64
2023/06/04 04:43:31;;;;;;;;;;;;;;;20.16;71.17;97265.07;617567;230;67550;-64
2023/06/04 04:46:00;;;;;;;;;;;;;;;20.16;71.17;97267.73;617488;230;65387;-64
2023/06/04 04:48:28;;;;;;;;;;;;;;;20.16;71.15;97265.07;617525;230;64462;-64
2023/06/04 04:50:56;;;;;;;;;;;;;;;20.16;71.19;97265.07;617498;230;64668;-64
2023/06/04 04:53:23;;;;;;;;;;;;;;;20.17;71.20;97272.03;617510;230;62839;-64
2023/06/04 04:55:51;;;;;;;;;;;;;;;20.15;71.18;97274.95;617504;230;65023;-64
2023/06/04 04:58:19;;;;;;;;;;;;;;;20.16;71.18;97273.08;617510;230;65655;-64
2023/06/04 05:00:47;;;;;;;;;;;;;;;20.16;71.19;97281.08;617525;230;63703;-64
2023/06/04 05:03:15;;;;;;;;;;;;;;;20.15;71.18;97280.28;617494;230;64589;-64
2023/06/04 05:05:43;;;;;;;;;;;;;;;20.15;71.17;97282.95;617527;230;65725;-64
2023/06/04 05:08:12;;;;;;;;;;;;;;;20.15;71.17;97282.95;617512;230;63086;-65
2023/06/04 05:10:42;;;;;;;;;;;;;;;20.15;71.19;97288.28;617540;230;67083;-65
2023/06/04 05:13:11;;;;;;;;;;;;;;;20.15;71.19;97288.28;618517;229;67235;-65
2023/06/04 05:15:42;;;;;;;;;;;;;;;20.16;71.17;97289.09;619621;228;43646;-64
2023/06/04 05:18:09;;;;;;;;;;;;;;;20.16;71.17;97294.42;619637;229;66802;-64
2023/06/04 05:20:37;;;;;;;;;;;;;;;20.15;71.15;97288.28;619632;229;67602;-64
2023/06/04 05:23:06;;;;;;;;;;;;;;;20.15;71.14;97293.63;619699;229;65657;-64
2023/06/04 05:25:33;;;;;;;;;;;;;;;20.15;71.16;97298.16;619637;229;64314;-65
2023/06/04 05:28:01;;;;;;;;;;;;;;;20.14;71.13;97292.03;619694;229;67495;-64
2023/06/04 05:30:29;;;;;;;;;;;;;;;20.15;71.17;97298.96;619697;229;63072;-64
2023/06/04 05:32:56;;;;;;;;;;;;;;;20.15;71.14;97304.30;619688;229;67442;-64
2023/06/04 05:35:25;;;;;;;;;;;;;;;20.15;71.12;97303.50;619728;229;67116;-64
2023/06/04 05:37:53;;;;;;;;;;;;;;;20.15;71.14;97303.50;619638;229;62503;-64
2023/06/04 05:40:22;;;;;;;;;;;;;;;20.15;71.15;97306.97;619697;227;45429;-65
2023/06/04 05:42:50;;;;;;;;;;;;;;;20.15;71.16;97314.17;619662;229;64498;-65
2023/06/04 05:45:18;;;;;;;;;;;;;;;20.14;71.16;97308.04;619649;229;63006;-65
2023/06/04 05:47:45;;;;;;;;;;;;;;;20.15;71.14;97311.50;619665;229;67467;-65
2023/06/04 05:50:13;;;;;;;;;;;;;;;20.14;71.15;97313.38;619703;229;66966;-65
2023/06/04 05:52:41;;;;;;;;;;;;;;;20.14;71.16;97305.37;619635;229;62474;-65
2023/06/04 05:55:10;;;;;;;;;;;;;;;20.14;71.15;97308.04;619660;229;67264;-65
2023/06/04 05:57:38;;;;;;;;;;;;;;;20.15;71.15;97314.17;619657;229;65682;-65
2023/06/04 06:00:09;;;;;;;;;;;;;;;20.15;71.15;97314.17;619661;229;62652;-65
2023/06/04 06:02:40;;;;;;;;;;;;;;;20.14;71.12;97315.25;619733;228;45436;-65
2023/06/04 06:05:10;;;;;;;;;;;;;;;20.14;71.12;97318.71;619748;229;46861;-66
2023/06/04 06:07:38;;;;;;;;;;;;;;;20.13;71.12;97325.13;619671;229;63764;-65
2023/06/04 06:10:06;;;;;;;;;;;;;;;20.14;71.96;97325.92;619634;229;67291;-65
2023/06/04 06:12:34;;;;;;;;;;;;;;;20.12;71.15;97328.83;619125;229;65048;-65
2023/06/04 06:15:02;;;;;;;;;;;;;;;20.14;71.15;97329.39;617585;230;63034;-65
2023/06/04 06:17:30;;;;;;;;;;;;;;;20.14;71.14;97334.72;617502;230;67620;-66
2023/06/04 06:19:57;;;;;;;;;;;;;;;20.15;71.02;97341.66;617543;230;67822;-65
2023/06/04 06:22:25;;;;;;;;;;;;;;;20.16;70.99;97345.12;617546;230;63676;-65
2023/06/04 06:24:52;;;;;;;;;;;;;;;20.16;70.92;97345.95;617521;230;66886;-65
2023/06/04 06:27:20;;;;;;;;;;;;;;;20.17;70.91;97339.55;617586;230;63975;-66
2023/06/04 06:29:48;;;;;;;;;;;;;;;20.17;70.87;97339.55;617586;230;63884;-65
2023/06/04 06:32:16;;;;;;;;;;;;;;;20.17;70.87;97339.55;617509;230;64775;-65
2023/06/04 06:34:43;;;;;;;;;;;;;;;20.17;70.87;97344.88;617530;230;67025;-65
2023/06/04 06:37:10;;;;;;;;;;;;;;;20.17;70.90;97344.88;617543;230;65040;-65
2023/06/04 06:39:38;;;;;;;;;;;;;;;20.19;70.90;97347.30;617548;230;64679;-65
2023/06/04 06:42:05;;;;;;;;;;;;;;;20.18;70.88;97346.47;617621;230;64829;-66
2023/06/04 06:44:35;;;;;;;;;;;;;;;20.18;70.85;97349.14;617511;228;43945;-65
2023/06/04 06:47:02;;;;;;;;;;;;;;;20.20;70.87;97345.43;617558;230;64636;-65
2023/06/04 06:49:30;;;;;;;;;;;;;;;20.19;70.89;97347.30;617577;230;64651;-65
2023/06/04 06:51:57;;;;;;;;;;;;;;;20.21;70.88;97355.03;617595;230;62731;-65
2023/06/04 06:54:25;;;;;;;;;;;;;;;20.21;70.88;97349.70;617608;230;64302;-65
2023/06/04 06:56:52;;;;;;;;;;;;;;;20.20;70.90;97351.56;617560;230;64772;-65
2023/06/04 06:59:20;;;;;;;;;;;;;;;20.21;70.91;97349.70;617528;230;62915;-65
2023/06/04 07:01:47;;;;;;;;;;;;;;;20.20;70.88;97351.56;617531;230;65007;-65
2023/06/04 07:04:15;;;;;;;;;;;;;;;20.21;70.95;97349.70;617553;230;64700;-65
2023/06/04 07:06:43;;;;;;;;;;;;;;;20.22;70.95;97351.32;617598;230;65024;-64
2023/06/04 07:09:10;;;;;;;;;;;;;;;20.22;70.95;97360.12;617542;230;64578;-64
2023/06/04 07:11:38;;;;;;;;;;;;;;;20.22;70.95;97356.66;617529;230;64569;-63
2023/06/04 07:14:06;;;;;;;;;;;;;;;20.23;70.95;97366.27;619317;229;65124;-63
2023/06/04 07:16:33;;;;;;;;;;;;;;;20.23;70.92;97358.26;619679;229;65643;-63
2023/06/04 07:19:02;;;;;;;;;;;;;;;20.22;70.94;97360.12;619728;229;66900;-63
2023/06/04 07:21:29;;;;;;;;;;;;;;;20.23;70.96;97358.26;619724;229;62896;-63
2023/06/04 07:23:57;;;;;;;;;;;;;;;20.23;71.00;97360.92;619656;229;66683;-63
2023/06/04 07:26:26;;;;;;;;;;;;;;;20.23;71.01;97363.59;619644;229;66793;-63
2023/06/04 07:28:53;;;;;;;;;;;;;;;20.24;71.03;97365.19;619678;229;62717;-63
2023/06/04 07:31:21;;;;;;;;;;;;;;;20.23;71.01;97366.27;619671;229;64670;-63
2023/06/04 07:33:48;;;;;;;;;;;;;;;20.23;71.03;97375.06;619724;229;66750;-65
2023/06/04 07:36:16;;;;;;;;;;;;;;;20.24;71.05;97373.20;619653;229;62900;-65
2023/06/04 07:38:44;;;;;;;;;;;;;;;20.24;71.08;97367.86;619658;229;64605;-65
2023/06/04 07:41:11;;;;;;;;;;;;;;;20.24;71.09;97373.20;619668;229;64158;-65
2023/06/04 07:43:39;;;;;;;;;;;;;;;20.24;71.13;97370.53;619670;229;65114;-65
2023/06/04 07:46:06;;;;;;;;;;;;;;;20.24;71.16;97387.34;619695;229;66752;-65
2023/06/04 07:48:34;;;;;;;;;;;;;;;20.24;71.08;97383.88;619656;229;67020;-65
2023/06/04 07:51:03;;;;;;;;;;;;;;;20.24;71.12;97389.20;619677;229;62914;-65
2023/06/04 07:53:30;;;;;;;;;;;;;;;20.25;71.11;97382.83;619624;229;66835;-65
2023/06/04 07:55:58;;;;;;;;;;;;;;;20.24;71.11;97382.00;619681;229;66780;-65
2023/06/04 07:58:26;;;;;;;;;;;;;;;20.24;71.13;97390.00;619708;229;65081;-65
2023/06/04 08:00:54;;;;;;;;;;;;;;;20.25;71.13;97390.84;619647;229;64732;-65
2023/06/04 08:03:22;;;;;;;;;;;;;;;20.26;71.15;97395.10;619688;229;66801;-65
2023/06/04 08:05:49;;;;;;;;;;;;;;;20.25;71.12;97394.30;619662;229;65044;-65
2023/06/04 08:08:17;;;;;;;;;;;;;;;20.25;71.11;97402.31;619657;229;64232;-65
2023/06/04 08:10:44;;;;;;;;;;;;;;;20.26;71.14;97408.45;619714;229;65390;-65
2023/06/04 08:13:11;;;;;;;;;;;;;;;20.26;71.14;97400.44;619588;229;65028;-65
2023/06/04 08:15:39;;;;;;;;;;;;;;;20.25;71.12;97407.65;619669;229;67194;-65
2023/06/04 08:18:06;;;;;;;;;;;;;;;20.26;71.09;97406.58;619662;229;66752;-65
2023/06/04 08:20:34;;;;;;;;;;;;;;;20.26;71.09;97405.78;619625;229;62913;-65
2023/06/04 08:23:01;;;;;;;;;;;;;;;20.26;71.09;97403.11;619692;229;64653;-65
2023/06/04 08:25:30;;;;;;;;;;;;;;;20.26;71.10;97405.78;619700;229;65660;-65
2023/06/04 08:27:57;;;;;;;;;;;;;;;20.26;71.10;97408.45;619659;229;64946;-65
2023/06/04 08:30:25;;;;;;;;;;;;;;;20.27;71.09;97407.38;619682;229;66780;-65
2023/06/04 08:32:53;;;;;;;;;;;;;;;20.27;71.10;97412.71;619643;229;64628;-65
2023/06/04 08:35:20;;;;;;;;;;;;;;;20.26;71.11;97405.78;619660;229;62979;-65
2023/06/04 08:37:48;;;;;;;;;;;;;;;20.26;71.15;97406.58;619690;229;64550;-66
2023/06/04 08:40:16;;;;;;;;;;;;;;;20.27;71.08;97407.38;619660;229;64524;-65
2023/06/04 08:42:47;;;;;;;;;;;;;;;20.27;71.08;97407.38;619661;229;63808;-65
2023/06/04 08:45:18;;;;;;;;;;;;;;;20.27;71.11;97420.72;619657;229;66920;-65
2023/06/04 08:47:47;;;;;;;;;;;;;;;20.27;71.09;97418.88;619664;229;66765;-65
2023/06/04 08:50:15;;;;;;;;;;;;;;;20.27;71.09;97423.39;619653;228;65058;-65
2023/06/04 08:52:43;;;;;;;;;;;;;;;20.27;71.12;97421.55;619653;229;66884;-65
2023/06/04 08:55:13;;;;;;;;;;;;;;;20.28;71.11;97427.69;619693;229;66508;-65
2023/06/04 08:57:41;;;;;;;;;;;;;;;20.26;71.09;97427.92;619635;229;61240;-64
2023/06/04 09:00:09;;;;;;;;;;;;;;;20.27;71.09;97434.06;619673;229;66986;-64
2023/06/04 09:02:40;;;;;;;;;;;;;;;20.28;71.08;97433.02;619724;229;67090;-64
2023/06/04 09:05:12;;;;;;;;;;;;;;;20.27;71.08;97431.39;619754;229;62905;-64
2023/06/04 09:07:39;;;;;;;;;;;;;;;20.27;71.05;97439.41;619549;228;64732;-64
2023/06/04 09:10:08;;;;;;;;;;;;;;;20.28;71.05;97430.36;619674;229;66775;-64
2023/06/04 09:12:37;;;;;;;;;;;;;;;20.28;71.07;97441.03;619597;229;65001;-64
2023/06/04 09:15:05;;;;;;;;;;;;;;;20.27;71.07;97440.23;619682;229;66791;-64
2023/06/04 09:17:32;;;;;;;;;;;;;;;20.27;71.10;97442.07;619776;229;66425;-64
2023/06/04 09:20:00;;;;;;;;;;;;;;;20.27;71.10;97450.08;619727;229;65068;-64
2023/06/04 09:22:34;;;;;;;;;;;;;;;20.27;71.07;97450.08;619723;229;66369;-64
2023/06/04 09:25:03;;;;;;;;;;;;;;;20.27;71.06;97466.92;619663;229;66586;-64
2023/06/04 09:27:32;;;;;;;;;;;;;;;20.27;71.07;97468.76;619718;229;65295;-64
2023/06/04 09:30:00;;;;;;;;;;;;;;;20.27;71.09;97469.59;619601;228;66911;-64
2023/06/04 09:32:28;;;;;;;;;;;;;;;20.27;71.07;97472.26;619768;229;66498;-64
2023/06/04 09:34:57;;;;;;;;;;;;;;;20.27;71.09;97474.92;619698;229;63822;-65
2023/06/04 09:37:26;;;;;;;;;;;;;;;20.27;71.05;97480.27;619680;229;66654;-65
2023/06/04 09:39:55;;;;;;;;;;;;;;;20.28;71.05;97486.41;619696;229;65084;-64
2023/06/04 09:42:23;;;;;;;;;;;;;;;20.28;71.04;97481.06;619622;228;65097;-64
2023/06/04 09:44:51;;;;;;;;;;;;;;;20.28;71.05;97486.41;619748;229;64665;-64
2023/06/04 09:47:18;;;;;;;;;;;;;;;20.28;71.08;97489.07;619689;229;66687;-64
2023/06/04 09:49:49;;;;;;;;;;;;;;;20.28;71.08;97491.73;619678;229;65081;-64
2023/06/04 09:52:16;;;;;;;;;;;;;;;20.28;71.06;97489.87;619630;229;64685;-64
2023/06/04 09:54:44;;;;;;;;;;;;;;;20.29;71.03;97496.00;619680;229;66748;-64
2023/06/04 09:57:17;;;;;;;;;;;;;;;20.28;71.04;97497.88;619740;229;65009;-64
2023/06/04 09:59:49;;;;;;;;;;;;;;;20.30;71.08;97498.44;619664;229;66838;-65
2023/06/04 10:02:19;;;;;;;;;;;;;;;20.30;71.04;97500.30;619686;229;64676;-65
2023/06/04 10:04:48;;;;;;;;;;;;;;;20.29;71.03;97498.67;619585;228;65143;-65
2023/06/04 10:07:15;;;;;;;;;;;;;;;20.28;71.06;97499.75;619650;229;64563;-65
2023/06/04 10:09:47;;;;;;;;;;;;;;;20.28;71.06;97495.20;619707;229;64325;-65
2023/06/04 10:12:16;;;;;;;;;;;;;;;20.28;71.04;97499.75;619478;229;64956;-65
2023/06/04 10:15:01;;;;;;;;;;;;;;;20.29;71.07;97504.02;617553;229;66894;-65
2023/06/04 10:17:30;;;;;;;;;;;;;;;20.28;71.05;97500.55;617542;230;64954;-64
2023/06/04 10:19:58;;;;;;;;;;;;;;;20.29;71.03;97504.02;617548;230;65090;-64
2023/06/04 10:22:26;;;;;;;;;;;;;;;20.28;71.02;97497.88;617543;230;66922;-64
2023/06/04 10:24:54;;;;;;;;;;;;;;;20.29;71.05;97509.35;617560;230;66765;-64
2023/06/04 10:27:21;;;;;;;;;;;;;;;20.30;71.08;97508.31;617583;230;65050;-64
2023/06/04 10:29:50;;;;;;;;;;;;;;;20.29;71.06;97509.35;617554;230;66904;-64
2023/06/04 10:32:18;;;;;;;;;;;;;;;20.30;71.10;97508.31;617537;230;64499;-64
2023/06/04 10:34:46;;;;;;;;;;;;;;;20.28;71.06;97511.22;617541;230;65068;-64
2023/06/04 10:37:21;;;;;;;;;;;;;;;20.29;71.03;97506.68;617554;230;66815;-65
2023/06/04 10:39:53;;;;;;;;;;;;;;;20.28;71.02;97511.22;617604;230;60976;-64
2023/06/04 10:42:21;;;;;;;;;;;;;;;20.30;71.05;97516.32;617407;228;62882;-65
2023/06/04 10:44:50;;;;;;;;;;;;;;;20.30;71.08;97516.32;617528;230;67412;-65
2023/06/04 10:47:30;;;;;;;;;;;;;;;20.30;71.06;97516.32;617542;230;67040;-65
2023/06/04 10:49:58;;;;;;;;;;;;;;;20.29;71.06;97517.36;617524;230;63030;-65
2023/06/04 10:52:26;;;;;;;;;;;;;;;20.30;71.05;97527.00;617330;228;67156;-64
2023/06/04 10:54:55;;;;;;;;;;;;;;;20.30;71.03;97527.00;617582;230;66986;-64
2023/06/04 10:57:23;;;;;;;;;;;;;;;20.29;71.08;97517.36;617363;228;65107;-64
2023/06/04 10:59:58;;;;;;;;;;;;;;;20.29;71.10;97517.36;617561;230;67019;-64
2023/06/04 11:02:26;;;;;;;;;;;;;;;20.31;71.04;97517.92;617446;228;66987;-64
2023/06/04 11:05:05;;;;;;;;;;;;;;;20.31;71.05;97520.59;617508;230;62690;-64
2023/06/04 11:07:32;;;;;;;;;;;;;;;20.30;71.09;97524.33;617439;228;65811;-64
2023/06/04 11:09:59;;;;;;;;;;;;;;;20.30;71.06;97518.98;617430;228;67124;-64
2023/06/04 11:12:28;;;;;;;;;;;;;;;20.30;71.10;97524.33;617478;229;63788;-64
2023/06/04 11:14:56;;;;;;;;;;;;;;;20.30;71.09;97524.33;617511;229;67229;-64
2023/06/04 11:17:24;;;;;;;;;;;;;;;20.29;71.07;97525.37;617503;230;67015;-64
2023/06/04 11:19:55;;;;;;;;;;;;;;;20.30;71.08;97533.13;617545;230;65064;-64
2023/06/04 11:22:21;;;;;;;;;;;;;;;20.30;71.11;97527.00;617526;228;64410;-64
2023/06/04 11:24:48;;;;;;;;;;;;;;;20.30;71.12;97525.13;617524;230;65406;-64
2023/06/04 11:27:16;;;;;;;;;;;;;;;20.30;71.12;97529.66;617472;230;64869;-64
2023/06/04 11:29:43;;;;;;;;;;;;;;;20.31;71.12;97525.92;617361;230;67130;-64
2023/06/04 11:32:10;;;;;;;;;;;;;;;20.30;71.13;97527.80;617459;230;67449;-64
2023/06/04 11:34:38;;;;;;;;;;;;;;;20.29;71.15;97517.36;617564;230;64917;-64
2023/06/04 11:37:09;;;;;;;;;;;;;;;20.31;71.13;97520.59;617513;230;66999;-64
2023/06/04 11:39:39;;;;;;;;;;;;;;;20.30;71.10;97521.66;617537;230;66947;-64
2023/06/04 11:42:07;;;;;;;;;;;;;;;20.31;71.12;97528.59;617519;230;65089;-65
2023/06/04 11:44:34;;;;;;;;;;;;;;;20.31;71.12;97523.25;617502;230;67078;-64
2023/06/04 11:47:03;;;;;;;;;;;;;;;20.30;71.11;97530.47;617590;230;67044;-64
2023/06/04 11:49:31;;;;;;;;;;;;;;;20.31;71.12;97533.93;617561;230;65079;-64
2023/06/04 11:51:58;;;;;;;;;;;;;;;20.30;71.13;97535.00;617525;230;66944;-64
2023/06/04 11:54:26;;;;;;;;;;;;;;;20.30;71.19;97529.66;617501;230;64887;-64
2023/06/04 11:56:53;;;;;;;;;;;;;;;20.32;71.15;97532.86;617499;230;63639;-64
2023/06/04 11:59:21;;;;;;;;;;;;;;;20.32;71.15;97538.20;617496;230;65310;-64
2023/06/04 12:01:49;;;;;;;;;;;;;;;20.32;71.16;97535.53;617551;230;67059;-64
2023/06/04 12:04:17;;;;;;;;;;;;;;;20.30;71.19;97533.13;617542;230;65003;-64
2023/06/04 12:06:53;;;;;;;;;;;;;;;20.31;71.16;97534.73;617523;230;64952;-64
2023/06/04 12:09:21;;;;;;;;;;;;;;;20.31;71.14;97545.41;617503;230;67107;-66
2023/06/04 12:11:49;;;;;;;;;;;;;;;20.31;71.16;97544.61;617485;230;65051;-66
2023/06/04 12:14:23;;;;;;;;;;;;;;;20.30;71.15;97545.68;619514;229;65014;-64
2023/06/04 12:17:01;;;;;;;;;;;;;;;20.31;71.12;97544.61;619453;227;66651;-64
2023/06/04 12:19:29;;;;;;;;;;;;;;;20.31;71.13;97542.73;619643;229;62922;-63
2023/06/04 12:22:04;;;;;;;;;;;;;;;20.31;71.14;97547.28;619585;229;67199;-63
2023/06/04 12:24:37;;;;;;;;;;;;;;;20.31;71.16;97552.62;619642;229;64980;-62
2023/06/04 12:27:09;;;;;;;;;;;;;;;20.31;71.17;97544.61;619628;229;62975;-61
2023/06/04 12:29:37;;;;;;;;;;;;;;;20.30;71.17;97548.34;619695;229;64942;-61
2023/06/04 12:32:07;;;;;;;;;;;;;;;20.31;71.16;97552.62;619633;229;64654;-62
2023/06/04 12:34:35;;;;;;;;;;;;;;;20.31;71.18;97557.95;619605;229;62990;-63
2023/06/04 12:37:03;;;;;;;;;;;;;;;20.31;71.18;97549.95;619639;229;67190;-64
2023/06/04 12:39:30;;;;;;;;;;;;;;;20.31;71.21;97561.42;619664;229;66696;-64
2023/06/04 12:41:58;;;;;;;;;;;;;;;20.31;71.20;97552.62;619632;229;63003;-64
2023/06/04 12:44:25;;;;;;;;;;;;;;;20.31;71.17;97552.62;619695;229;65154;-64
2023/06/04 12:46:53;;;;;;;;;;;;;;;20.30;71.17;97559.02;619613;229;65269;-64
2023/06/04 12:49:21;;;;;;;;;;;;;;;20.31;71.16;97553.41;619614;229;62442;-64
2023/06/04 12:51:48;;;;;;;;;;;;;;;20.30;71.18;97546.48;619642;229;64886;-64
2023/06/04 12:54:16;;;;;;;;;;;;;;;20.31;71.18;97552.62;619617;229;66921;-64